sensor_id;sensor_type;location;lat;lon;timestamp;temperature;humidity
75799;DHT22;65035;44.726;37.764;2022-12-07T00:00:44;17.58;118.99
75799;DHT22;65035;44.726;37.764;2022-12-07T00:01:47;17.58;118.99
75799;DHT22;65035;44.726;37.764;2022-12-07T00:02:49;17.58;118.99
75799;DHT22;65035;44.726;37.764;2022-12-07T00:03:55;17.59;118.99
75799;DHT22;65035;44.726;37.764;2022-12-07T00:05:57;17.56;118.99
75799;DHT22;65035;44.726;37.764;2022-12-07T00:07:00;17.60;118.99
75799;DHT22;65035;44.726;37.764;2022-12-07T00:08:04;17.59;118.99
75799;DHT22;65035;44.726;37.764;2022-12-07T00:09:09;17.58;118.99
75799;DHT22;65035;44.726;37.764;2022-12-07T00:10:12;17.59;118.99
75799;DHT22;65035;44.726;37.764;2022-12-07T00:11:20;17.60;118.99
75799;DHT22;65035;44.726;37.764;2022-12-07T00:12:23;17.56;118.99
75799;DHT22;65035;44.726;37.764;2022-12-07T00:13:26;17.56;118.99
75799;DHT22;65035;44.726;37.764;2022-12-07T00:14:31;17.56;118.99
75799;DHT22;65035;44.726;37.764;2022-12-07T00:15:42;17.60;118.99
75799;DHT22;65035;44.726;37.764;2022-12-07T00:16:52;17.58;118.99
75799;DHT22;65035;44.726;37.764;2022-12-07T00:17:58;17.58;118.99
75799;DHT22;65035;44.726;37.764;2022-12-07T00:19:10;17.58;118.99
75799;DHT22;65035;44.726;37.764;2022-12-07T00:20:18;17.58;118.99
75799;DHT22;65035;44.726;37.764;2022-12-07T00:21:42;17.53;118.99
75799;DHT22;65035;44.726;37.764;2022-12-07T00:22:54;17.55;118.99
75799;DHT22;65035;44.726;37.764;2022-12-07T00:24:03;17.53;118.99
75799;DHT22;65035;44.726;37.764;2022-12-07T00:25:16;17.55;118.99
75799;DHT22;65035;44.726;37.764;2022-12-07T00:26:28;17.54;118.99
75799;DHT22;65035;44.726;37.764;2022-12-07T00:27:45;17.54;118.99
75799;DHT22;65035;44.726;37.764;2022-12-07T00:28:54;17.52;118.99
75799;DHT22;65035;44.726;37.764;2022-12-07T00:30:15;17.52;118.99
75799;DHT22;65035;44.726;37.764;2022-12-07T00:31:28;17.56;118.99
75799;DHT22;65035;44.726;37.764;2022-12-07T00:32:31;17.55;118.99
75799;DHT22;65035;44.726;37.764;2022-12-07T00:33:35;17.53;118.99
75799;DHT22;65035;44.726;37.764;2022-12-07T00:34:40;17.54;118.99
75799;DHT22;65035;44.726;37.764;2022-12-07T00:35:42;17.52;118.99
75799;DHT22;65035;44.726;37.764;2022-12-07T00:36:45;17.52;118.99
75799;DHT22;65035;44.726;37.764;2022-12-07T00:37:48;17.54;118.99
75799;DHT22;65035;44.726;37.764;2022-12-07T00:38:51;17.53;118.99
75799;DHT22;65035;44.726;37.764;2022-12-07T00:39:54;17.53;118.99
75799;DHT22;65035;44.726;37.764;2022-12-07T00:40:58;17.56;118.99
75799;DHT22;65035;44.726;37.764;2022-12-07T00:42:01;17.58;118.99
75799;DHT22;65035;44.726;37.764;2022-12-07T00:43:04;17.55;118.99
75799;DHT22;65035;44.726;37.764;2022-12-07T00:44:07;17.55;118.99
75799;DHT22;65035;44.726;37.764;2022-12-07T00:45:10;17.56;118.99
75799;DHT22;65035;44.726;37.764;2022-12-07T00:46:14;17.55;118.99
75799;DHT22;65035;44.726;37.764;2022-12-07T00:47:17;17.55;118.99
75799;DHT22;65035;44.726;37.764;2022-12-07T00:48:21;17.52;118.99
75799;DHT22;65035;44.726;37.764;2022-12-07T00:49:25;17.56;118.99
75799;DHT22;65035;44.726;37.764;2022-12-07T00:50:28;17.55;118.99
75799;DHT22;65035;44.726;37.764;2022-12-07T00:51:31;17.55;118.99
75799;DHT22;65035;44.726;37.764;2022-12-07T00:52:34;17.56;118.99
75799;DHT22;65035;44.726;37.764;2022-12-07T00:53:38;17.55;118.99
75799;DHT22;65035;44.726;37.764;2022-12-07T00:55:00;17.52;118.99
75799;DHT22;65035;44.726;37.764;2022-12-07T00:56:25;17.52;118.99
75799;DHT22;65035;44.726;37.764;2022-12-07T00:57:30;17.52;118.99
75799;DHT22;65035;44.726;37.764;2022-12-07T00:58:33;17.55;118.99
75799;DHT22;65035;44.726;37.764;2022-12-07T00:59:36;17.50;118.99
75799;DHT22;65035;44.726;37.764;2022-12-07T01:00:40;17.51;118.99
75799;DHT22;65035;44.726;37.764;2022-12-07T01:01:43;17.50;118.99
75799;DHT22;65035;44.726;37.764;2022-12-07T01:02:46;17.52;118.99
75799;DHT22;65035;44.726;37.764;2022-12-07T01:03:49;17.50;118.99
75799;DHT22;65035;44.726;37.764;2022-12-07T01:04:52;17.54;118.99
75799;DHT22;65035;44.726;37.764;2022-12-07T01:05:56;17.47;118.99
75799;DHT22;65035;44.726;37.764;2022-12-07T01:06:59;17.51;118.99
75799;DHT22;65035;44.726;37.764;2022-12-07T01:08:02;17.53;118.99
75799;DHT22;65035;44.726;37.764;2022-12-07T01:09:05;17.51;118.99
75799;DHT22;65035;44.726;37.764;2022-12-07T01:10:09;17.50;118.99
75799;DHT22;65035;44.726;37.764;2022-12-07T01:11:59;17.52;118.99
75799;DHT22;65035;44.726;37.764;2022-12-07T01:13:02;17.50;118.99
75799;DHT22;65035;44.726;37.764;2022-12-07T01:14:05;17.53;118.99
75799;DHT22;65035;44.726;37.764;2022-12-07T01:15:08;17.48;118.99
75799;DHT22;65035;44.726;37.764;2022-12-07T01:16:14;17.52;118.99
75799;DHT22;65035;44.726;37.764;2022-12-07T01:17:17;17.48;118.99
75799;DHT22;65035;44.726;37.764;2022-12-07T01:18:20;17.50;118.99
75799;DHT22;65035;44.726;37.764;2022-12-07T01:19:23;17.55;118.99
75799;DHT22;65035;44.726;37.764;2022-12-07T01:20:26;17.50;118.99
75799;DHT22;65035;44.726;37.764;2022-12-07T01:21:31;17.51;118.99
75799;DHT22;65035;44.726;37.764;2022-12-07T01:22:40;17.51;118.99
75799;DHT22;65035;44.726;37.764;2022-12-07T01:23:43;17.51;118.99
75799;DHT22;65035;44.726;37.764;2022-12-07T01:24:46;17.52;118.99
75799;DHT22;65035;44.726;37.764;2022-12-07T01:25:57;17.51;118.99
75799;DHT22;65035;44.726;37.764;2022-12-07T01:27:00;17.50;118.99
75799;DHT22;65035;44.726;37.764;2022-12-07T01:28:03;17.50;118.99
75799;DHT22;65035;44.726;37.764;2022-12-07T01:29:06;17.49;118.99
75799;DHT22;65035;44.726;37.764;2022-12-07T01:30:10;17.51;118.99
75799;DHT22;65035;44.726;37.764;2022-12-07T01:31:15;17.49;118.99
75799;DHT22;65035;44.726;37.764;2022-12-07T01:32:19;17.47;118.99
75799;DHT22;65035;44.726;37.764;2022-12-07T01:33:21;17.50;118.99
75799;DHT22;65035;44.726;37.764;2022-12-07T01:34:24;17.50;118.99
75799;DHT22;65035;44.726;37.764;2022-12-07T01:35:27;17.50;118.99
75799;DHT22;65035;44.726;37.764;2022-12-07T01:36:33;17.48;118.99
75799;DHT22;65035;44.726;37.764;2022-12-07T01:38:25;17.51;118.99
75799;DHT22;65035;44.726;37.764;2022-12-07T01:40:17;17.45;118.99
75799;DHT22;65035;44.726;37.764;2022-12-07T01:41:20;17.50;118.99
75799;DHT22;65035;44.726;37.764;2022-12-07T01:42:23;17.48;118.99
75799;DHT22;65035;44.726;37.764;2022-12-07T01:43:28;17.54;118.99
75799;DHT22;65035;44.726;37.764;2022-12-07T01:44:31;17.48;118.99
75799;DHT22;65035;44.726;37.764;2022-12-07T01:45:40;17.47;118.99
75799;DHT22;65035;44.726;37.764;2022-12-07T01:46:59;17.51;118.99
75799;DHT22;65035;44.726;37.764;2022-12-07T01:48:04;17.48;118.99
75799;DHT22;65035;44.726;37.764;2022-12-07T01:49:13;17.47;118.99
75799;DHT22;65035;44.726;37.764;2022-12-07T01:50:17;17.47;118.99
75799;DHT22;65035;44.726;37.764;2022-12-07T01:51:21;17.47;118.99
75799;DHT22;65035;44.726;37.764;2022-12-07T01:52:26;17.49;118.99
75799;DHT22;65035;44.726;37.764;2022-12-07T01:53:32;17.48;118.99
75799;DHT22;65035;44.726;37.764;2022-12-07T01:54:37;17.50;118.99
75799;DHT22;65035;44.726;37.764;2022-12-07T01:55:44;17.51;118.99
75799;DHT22;65035;44.726;37.764;2022-12-07T01:56:51;17.51;118.99
75799;DHT22;65035;44.726;37.764;2022-12-07T01:57:55;17.49;118.99
75799;DHT22;65035;44.726;37.764;2022-12-07T01:59:00;17.47;118.99
75799;DHT22;65035;44.726;37.764;2022-12-07T02:00:06;17.47;118.99
75799;DHT22;65035;44.726;37.764;2022-12-07T02:01:15;17.50;118.99
75799;DHT22;65035;44.726;37.764;2022-12-07T02:02:24;17.50;118.99
75799;DHT22;65035;44.726;37.764;2022-12-07T02:03:41;17.48;118.99
75799;DHT22;65035;44.726;37.764;2022-12-07T02:05:34;17.51;118.99
75799;DHT22;65035;44.726;37.764;2022-12-07T02:06:38;17.50;118.99
75799;DHT22;65035;44.726;37.764;2022-12-07T02:07:41;17.48;118.99
75799;DHT22;65035;44.726;37.764;2022-12-07T02:08:45;17.51;118.99
75799;DHT22;65035;44.726;37.764;2022-12-07T02:09:48;17.51;118.99
75799;DHT22;65035;44.726;37.764;2022-12-07T02:10:51;17.50;118.99
75799;DHT22;65035;44.726;37.764;2022-12-07T02:11:59;17.48;118.99
75799;DHT22;65035;44.726;37.764;2022-12-07T02:13:08;17.48;118.99
75799;DHT22;65035;44.726;37.764;2022-12-07T02:14:12;17.48;118.99
75799;DHT22;65035;44.726;37.764;2022-12-07T02:15:15;17.48;118.99
75799;DHT22;65035;44.726;37.764;2022-12-07T02:16:25;17.50;118.99
75799;DHT22;65035;44.726;37.764;2022-12-07T02:19:14;17.51;118.99
75799;DHT22;65035;44.726;37.764;2022-12-07T02:20:32;17.52;118.99
75799;DHT22;65035;44.726;37.764;2022-12-07T02:22:03;17.53;118.99
75799;DHT22;65035;44.726;37.764;2022-12-07T02:23:23;17.50;118.99
75799;DHT22;65035;44.726;37.764;2022-12-07T02:24:54;17.47;118.99
75799;DHT22;65035;44.726;37.764;2022-12-07T02:26:02;17.51;118.99
75799;DHT22;65035;44.726;37.764;2022-12-07T02:30:10;17.50;118.99
75799;DHT22;65035;44.726;37.764;2022-12-07T02:31:18;17.50;118.99
75799;DHT22;65035;44.726;37.764;2022-12-07T02:32:26;17.48;118.99
75799;DHT22;65035;44.726;37.764;2022-12-07T02:34:08;17.51;118.99
75799;DHT22;65035;44.726;37.764;2022-12-07T02:35:20;17.50;118.99
75799;DHT22;65035;44.726;37.764;2022-12-07T02:36:32;17.50;118.99
75799;DHT22;65035;44.726;37.764;2022-12-07T02:41:04;17.50;118.99
75799;DHT22;65035;44.726;37.764;2022-12-07T02:41:44;17.46;118.99
75799;DHT22;65035;44.726;37.764;2022-12-07T02:42:55;17.46;118.99
75799;DHT22;65035;44.726;37.764;2022-12-07T02:44:03;17.49;118.99
75799;DHT22;65035;44.726;37.764;2022-12-07T02:45:10;17.50;118.99
75799;DHT22;65035;44.726;37.764;2022-12-07T02:46:35;17.47;118.99
75799;DHT22;65035;44.726;37.764;2022-12-07T02:47:40;17.50;118.99
75799;DHT22;65035;44.726;37.764;2022-12-07T02:48:45;17.50;118.99
75799;DHT22;65035;44.726;37.764;2022-12-07T02:49:49;17.51;118.99
75799;DHT22;65035;44.726;37.764;2022-12-07T02:50:54;17.51;118.99
75799;DHT22;65035;44.726;37.764;2022-12-07T02:51:57;17.48;118.99
75799;DHT22;65035;44.726;37.764;2022-12-07T02:53:00;17.47;118.99
75799;DHT22;65035;44.726;37.764;2022-12-07T02:54:12;17.47;118.99
75799;DHT22;65035;44.726;37.764;2022-12-07T02:55:18;17.53;118.99
75799;DHT22;65035;44.726;37.764;2022-12-07T02:59:12;17.52;118.99
75799;DHT22;65035;44.726;37.764;2022-12-07T03:00:19;17.50;118.99
75799;DHT22;65035;44.726;37.764;2022-12-07T03:01:36;17.52;118.99
75799;DHT22;65035;44.726;37.764;2022-12-07T03:02:52;17.51;118.99
75799;DHT22;65035;44.726;37.764;2022-12-07T03:06:32;17.52;118.99
75799;DHT22;65035;44.726;37.764;2022-12-07T03:09:13;17.52;118.99
75799;DHT22;65035;44.726;37.764;2022-12-07T03:11:51;17.51;118.99
75799;DHT22;65035;44.726;37.764;2022-12-07T03:13:19;17.46;118.99
75799;DHT22;65035;44.726;37.764;2022-12-07T03:14:30;17.48;118.99
75799;DHT22;65035;44.726;37.764;2022-12-07T03:15:45;17.52;118.99
75799;DHT22;65035;44.726;37.764;2022-12-07T03:17:03;17.51;118.99
75799;DHT22;65035;44.726;37.764;2022-12-07T03:18:09;17.50;118.99
75799;DHT22;65035;44.726;37.764;2022-12-07T03:19:17;17.45;118.99
75799;DHT22;65035;44.726;37.764;2022-12-07T03:20:22;17.49;118.99
75799;DHT22;65035;44.726;37.764;2022-12-07T03:22:05;17.49;118.99
75799;DHT22;65035;44.726;37.764;2022-12-07T03:22:59;17.50;118.99
75799;DHT22;65035;44.726;37.764;2022-12-07T03:24:07;17.49;118.99
75799;DHT22;65035;44.726;37.764;2022-12-07T03:25:13;17.48;118.99
75799;DHT22;65035;44.726;37.764;2022-12-07T03:26:19;17.50;118.99
75799;DHT22;65035;44.726;37.764;2022-12-07T03:27:25;17.51;118.99
75799;DHT22;65035;44.726;37.764;2022-12-07T03:28:34;17.52;118.99
75799;DHT22;65035;44.726;37.764;2022-12-07T03:29:43;17.48;118.99
75799;DHT22;65035;44.726;37.764;2022-12-07T03:31:06;17.52;118.99
75799;DHT22;65035;44.726;37.764;2022-12-07T03:33:40;17.48;118.99
75799;DHT22;65035;44.726;37.764;2022-12-07T03:34:53;17.41;118.99
75799;DHT22;65035;44.726;37.764;2022-12-07T03:36:04;17.36;118.99
75799;DHT22;65035;44.726;37.764;2022-12-07T03:38:49;17.29;118.99
75799;DHT22;65035;44.726;37.764;2022-12-07T03:40:07;17.22;118.99
75799;DHT22;65035;44.726;37.764;2022-12-07T03:41:18;17.23;118.99
75799;DHT22;65035;44.726;37.764;2022-12-07T03:42:25;17.22;118.99
75799;DHT22;65035;44.726;37.764;2022-12-07T03:43:29;17.14;118.99
75799;DHT22;65035;44.726;37.764;2022-12-07T03:44:33;17.16;118.99
75799;DHT22;65035;44.726;37.764;2022-12-07T03:45:44;17.13;118.99
75799;DHT22;65035;44.726;37.764;2022-12-07T03:47:16;17.10;118.99
75799;DHT22;65035;44.726;37.764;2022-12-07T03:48:56;17.04;118.99
75799;DHT22;65035;44.726;37.764;2022-12-07T03:51:50;17.00;118.99
75799;DHT22;65035;44.726;37.764;2022-12-07T03:53:04;16.99;118.99
75799;DHT22;65035;44.726;37.764;2022-12-07T03:54:29;16.99;118.99
75799;DHT22;65035;44.726;37.764;2022-12-07T03:55:36;16.99;118.99
75799;DHT22;65035;44.726;37.764;2022-12-07T03:56:42;16.99;118.99
75799;DHT22;65035;44.726;37.764;2022-12-07T03:57:48;16.98;118.99
75799;DHT22;65035;44.726;37.764;2022-12-07T03:58:54;16.96;118.99
75799;DHT22;65035;44.726;37.764;2022-12-07T03:59:58;16.95;118.99
75799;DHT22;65035;44.726;37.764;2022-12-07T04:01:01;16.95;118.99
75799;DHT22;65035;44.726;37.764;2022-12-07T04:02:05;16.93;118.99
75799;DHT22;65035;44.726;37.764;2022-12-07T04:03:09;16.95;118.99
75799;DHT22;65035;44.726;37.764;2022-12-07T04:04:12;16.98;118.99
75799;DHT22;65035;44.726;37.764;2022-12-07T04:05:15;16.88;118.99
75799;DHT22;65035;44.726;37.764;2022-12-07T04:06:18;16.93;118.99
75799;DHT22;65035;44.726;37.764;2022-12-07T04:07:22;16.93;118.99
75799;DHT22;65035;44.726;37.764;2022-12-07T04:08:28;16.91;118.99
75799;DHT22;65035;44.726;37.764;2022-12-07T04:09:30;16.91;118.99
75799;DHT22;65035;44.726;37.764;2022-12-07T04:10:34;16.93;118.99
75799;DHT22;65035;44.726;37.764;2022-12-07T04:11:37;16.91;118.99
75799;DHT22;65035;44.726;37.764;2022-12-07T04:12:40;16.95;118.99
75799;DHT22;65035;44.726;37.764;2022-12-07T04:13:44;16.91;118.99
75799;DHT22;65035;44.726;37.764;2022-12-07T04:15:08;16.93;118.99
75799;DHT22;65035;44.726;37.764;2022-12-07T04:16:12;16.96;118.99
75799;DHT22;65035;44.726;37.764;2022-12-07T04:17:15;16.96;118.99
75799;DHT22;65035;44.726;37.764;2022-12-07T04:18:18;16.96;118.99
75799;DHT22;65035;44.726;37.764;2022-12-07T04:19:23;16.99;118.99
75799;DHT22;65035;44.726;37.764;2022-12-07T04:20:27;17.03;118.99
75799;DHT22;65035;44.726;37.764;2022-12-07T04:21:30;17.06;118.99
75799;DHT22;65035;44.726;37.764;2022-12-07T04:22:33;17.08;118.99
75799;DHT22;65035;44.726;37.764;2022-12-07T04:23:35;17.09;118.99
75799;DHT22;65035;44.726;37.764;2022-12-07T04:24:39;17.10;118.99
75799;DHT22;65035;44.726;37.764;2022-12-07T04:25:43;17.15;118.99
75799;DHT22;65035;44.726;37.764;2022-12-07T04:26:46;17.14;118.99
75799;DHT22;65035;44.726;37.764;2022-12-07T04:27:50;17.16;118.99
75799;DHT22;65035;44.726;37.764;2022-12-07T04:28:53;17.17;118.99
75799;DHT22;65035;44.726;37.764;2022-12-07T04:29:56;17.19;118.99
75799;DHT22;65035;44.726;37.764;2022-12-07T04:30:58;17.18;118.99
75799;DHT22;65035;44.726;37.764;2022-12-07T04:32:02;17.17;118.99
75799;DHT22;65035;44.726;37.764;2022-12-07T04:33:05;17.22;118.99
75799;DHT22;65035;44.726;37.764;2022-12-07T04:34:08;17.22;118.99
75799;DHT22;65035;44.726;37.764;2022-12-07T04:35:11;17.22;118.99
75799;DHT22;65035;44.726;37.764;2022-12-07T04:36:14;17.19;118.99
75799;DHT22;65035;44.726;37.764;2022-12-07T04:37:17;17.23;118.99
75799;DHT22;65035;44.726;37.764;2022-12-07T04:38:20;17.22;118.99
75799;DHT22;65035;44.726;37.764;2022-12-07T04:39:26;17.24;118.99
75799;DHT22;65035;44.726;37.764;2022-12-07T04:40:30;17.21;118.99
75799;DHT22;65035;44.726;37.764;2022-12-07T04:41:33;17.28;118.99
75799;DHT22;65035;44.726;37.764;2022-12-07T04:42:37;17.25;118.99
75799;DHT22;65035;44.726;37.764;2022-12-07T04:43:40;17.25;118.99
75799;DHT22;65035;44.726;37.764;2022-12-07T04:44:43;17.28;118.99
75799;DHT22;65035;44.726;37.764;2022-12-07T04:45:47;17.22;118.99
75799;DHT22;65035;44.726;37.764;2022-12-07T04:46:51;17.30;118.99
75799;DHT22;65035;44.726;37.764;2022-12-07T04:47:55;17.23;118.99
75799;DHT22;65035;44.726;37.764;2022-12-07T04:48:58;17.25;118.99
75799;DHT22;65035;44.726;37.764;2022-12-07T04:50:01;17.26;118.99
75799;DHT22;65035;44.726;37.764;2022-12-07T04:51:04;17.32;118.99
75799;DHT22;65035;44.726;37.764;2022-12-07T04:52:07;17.30;118.99
75799;DHT22;65035;44.726;37.764;2022-12-07T04:54:50;17.29;118.99
75799;DHT22;65035;44.726;37.764;2022-12-07T04:55:53;17.32;118.99
75799;DHT22;65035;44.726;37.764;2022-12-07T04:56:56;17.31;118.99
75799;DHT22;65035;44.726;37.764;2022-12-07T04:57:59;17.33;118.99
75799;DHT22;65035;44.726;37.764;2022-12-07T04:59:02;17.32;118.99
75799;DHT22;65035;44.726;37.764;2022-12-07T05:00:06;17.31;118.99
75799;DHT22;65035;44.726;37.764;2022-12-07T05:01:09;17.32;118.99
75799;DHT22;65035;44.726;37.764;2022-12-07T05:02:12;17.28;118.99
75799;DHT22;65035;44.726;37.764;2022-12-07T05:03:15;17.32;118.99
75799;DHT22;65035;44.726;37.764;2022-12-07T05:04:18;17.30;118.99
75799;DHT22;65035;44.726;37.764;2022-12-07T05:05:21;17.34;118.99
75799;DHT22;65035;44.726;37.764;2022-12-07T05:06:25;17.33;118.99
75799;DHT22;65035;44.726;37.764;2022-12-07T05:07:28;17.32;118.99
75799;DHT22;65035;44.726;37.764;2022-12-07T05:08:33;17.31;118.99
75799;DHT22;65035;44.726;37.764;2022-12-07T05:09:36;17.33;118.99
75799;DHT22;65035;44.726;37.764;2022-12-07T05:10:39;17.31;118.99
75799;DHT22;65035;44.726;37.764;2022-12-07T05:11:42;17.33;118.99
75799;DHT22;65035;44.726;37.764;2022-12-07T05:12:45;17.34;118.99
75799;DHT22;65035;44.726;37.764;2022-12-07T05:13:48;17.31;118.99
75799;DHT22;65035;44.726;37.764;2022-12-07T05:14:51;17.36;118.99
75799;DHT22;65035;44.726;37.764;2022-12-07T05:15:54;17.33;118.99
75799;DHT22;65035;44.726;37.764;2022-12-07T05:16:57;17.37;118.99
75799;DHT22;65035;44.726;37.764;2022-12-07T05:18:00;17.36;118.99
75799;DHT22;65035;44.726;37.764;2022-12-07T05:19:04;17.38;118.99
75799;DHT22;65035;44.726;37.764;2022-12-07T05:20:07;17.40;118.99
75799;DHT22;65035;44.726;37.764;2022-12-07T05:21:10;17.36;118.99
75799;DHT22;65035;44.726;37.764;2022-12-07T05:22:13;17.38;118.99
75799;DHT22;65035;44.726;37.764;2022-12-07T05:23:18;17.38;118.99
75799;DHT22;65035;44.726;37.764;2022-12-07T05:24:21;17.34;118.99
75799;DHT22;65035;44.726;37.764;2022-12-07T05:25:24;17.36;118.99
75799;DHT22;65035;44.726;37.764;2022-12-07T05:26:29;17.38;118.99
75799;DHT22;65035;44.726;37.764;2022-12-07T05:27:32;17.37;118.99
75799;DHT22;65035;44.726;37.764;2022-12-07T05:28:35;17.37;118.99
75799;DHT22;65035;44.726;37.764;2022-12-07T05:29:38;17.38;118.99
75799;DHT22;65035;44.726;37.764;2022-12-07T05:30:41;17.36;118.99
75799;DHT22;65035;44.726;37.764;2022-12-07T05:31:44;17.37;118.99
75799;DHT22;65035;44.726;37.764;2022-12-07T05:32:48;17.38;118.99
75799;DHT22;65035;44.726;37.764;2022-12-07T05:33:51;17.38;118.99
75799;DHT22;65035;44.726;37.764;2022-12-07T05:34:54;17.37;118.99
75799;DHT22;65035;44.726;37.764;2022-12-07T05:35:57;17.38;118.99
75799;DHT22;65035;44.726;37.764;2022-12-07T05:37:55;17.38;118.99
75799;DHT22;65035;44.726;37.764;2022-12-07T05:38:59;17.38;118.99
75799;DHT22;65035;44.726;37.764;2022-12-07T05:40:04;17.39;118.99
75799;DHT22;65035;44.726;37.764;2022-12-07T05:41:13;17.37;118.99
75799;DHT22;65035;44.726;37.764;2022-12-07T05:42:37;17.35;118.99
75799;DHT22;65035;44.726;37.764;2022-12-07T05:43:40;17.36;118.99
75799;DHT22;65035;44.726;37.764;2022-12-07T05:44:45;17.34;118.99
75799;DHT22;65035;44.726;37.764;2022-12-07T05:45:48;17.38;118.99
75799;DHT22;65035;44.726;37.764;2022-12-07T05:46:51;17.37;118.99
75799;DHT22;65035;44.726;37.764;2022-12-07T05:47:54;17.38;118.99
75799;DHT22;65035;44.726;37.764;2022-12-07T05:48:57;17.38;118.99
75799;DHT22;65035;44.726;37.764;2022-12-07T05:49:59;17.36;118.99
75799;DHT22;65035;44.726;37.764;2022-12-07T05:51:05;17.37;118.99
75799;DHT22;65035;44.726;37.764;2022-12-07T05:52:56;17.37;118.99
75799;DHT22;65035;44.726;37.764;2022-12-07T05:53:58;17.39;118.99
75799;DHT22;65035;44.726;37.764;2022-12-07T05:55:51;17.39;118.99
75799;DHT22;65035;44.726;37.764;2022-12-07T05:56:55;17.34;118.99
75799;DHT22;65035;44.726;37.764;2022-12-07T05:57:58;17.37;118.99
75799;DHT22;65035;44.726;37.764;2022-12-07T05:59:19;17.38;118.99
75799;DHT22;65035;44.726;37.764;2022-12-07T06:00:26;17.37;118.99
75799;DHT22;65035;44.726;37.764;2022-12-07T06:01:30;17.41;118.99
75799;DHT22;65035;44.726;37.764;2022-12-07T06:02:33;17.39;118.99
75799;DHT22;65035;44.726;37.764;2022-12-07T06:03:36;17.40;118.99
75799;DHT22;65035;44.726;37.764;2022-12-07T06:04:44;17.38;118.99
75799;DHT22;65035;44.726;37.764;2022-12-07T06:05:48;17.41;118.99
75799;DHT22;65035;44.726;37.764;2022-12-07T06:06:51;17.37;118.99
75799;DHT22;65035;44.726;37.764;2022-12-07T06:07:54;17.37;118.99
75799;DHT22;65035;44.726;37.764;2022-12-07T06:08:57;17.39;118.99
75799;DHT22;65035;44.726;37.764;2022-12-07T06:10:00;17.41;118.99
75799;DHT22;65035;44.726;37.764;2022-12-07T06:11:03;17.40;118.99
75799;DHT22;65035;44.726;37.764;2022-12-07T06:12:25;17.39;118.99
75799;DHT22;65035;44.726;37.764;2022-12-07T06:14:25;17.37;118.99
75799;DHT22;65035;44.726;37.764;2022-12-07T06:15:28;17.40;118.99
75799;DHT22;65035;44.726;37.764;2022-12-07T06:16:31;17.39;118.99
75799;DHT22;65035;44.726;37.764;2022-12-07T06:17:34;17.37;118.99
75799;DHT22;65035;44.726;37.764;2022-12-07T06:18:37;17.38;118.99
75799;DHT22;65035;44.726;37.764;2022-12-07T06:19:39;17.37;118.99
75799;DHT22;65035;44.726;37.764;2022-12-07T06:20:43;17.43;118.99
75799;DHT22;65035;44.726;37.764;2022-12-07T06:21:46;17.41;118.99
75799;DHT22;65035;44.726;37.764;2022-12-07T06:22:48;17.38;118.99
75799;DHT22;65035;44.726;37.764;2022-12-07T06:23:54;17.40;118.99
75799;DHT22;65035;44.726;37.764;2022-12-07T06:24:57;17.39;118.99
75799;DHT22;65035;44.726;37.764;2022-12-07T06:26:00;17.40;118.99
75799;DHT22;65035;44.726;37.764;2022-12-07T06:27:03;17.39;118.99
75799;DHT22;65035;44.726;37.764;2022-12-07T06:28:06;17.37;118.99
75799;DHT22;65035;44.726;37.764;2022-12-07T06:29:09;17.39;118.99
75799;DHT22;65035;44.726;37.764;2022-12-07T06:30:12;17.38;118.99
75799;DHT22;65035;44.726;37.764;2022-12-07T06:31:15;17.38;118.99
75799;DHT22;65035;44.726;37.764;2022-12-07T06:32:18;17.41;118.99
75799;DHT22;65035;44.726;37.764;2022-12-07T06:33:21;17.44;118.99
75799;DHT22;65035;44.726;37.764;2022-12-07T06:34:27;17.46;118.99
75799;DHT22;65035;44.726;37.764;2022-12-07T06:35:33;17.39;118.99
75799;DHT22;65035;44.726;37.764;2022-12-07T06:36:36;17.43;118.99
75799;DHT22;65035;44.726;37.764;2022-12-07T06:37:39;17.45;118.99
75799;DHT22;65035;44.726;37.764;2022-12-07T06:38:42;17.48;118.99
75799;DHT22;65035;44.726;37.764;2022-12-07T06:39:45;17.48;118.99
75799;DHT22;65035;44.726;37.764;2022-12-07T06:40:48;17.47;118.99
75799;DHT22;65035;44.726;37.764;2022-12-07T06:41:51;17.51;118.99
75799;DHT22;65035;44.726;37.764;2022-12-07T06:42:54;17.46;118.99
75799;DHT22;65035;44.726;37.764;2022-12-07T06:43:57;17.46;118.99
75799;DHT22;65035;44.726;37.764;2022-12-07T06:45:55;17.43;118.99
75799;DHT22;65035;44.726;37.764;2022-12-07T06:46:58;17.44;118.99
75799;DHT22;65035;44.726;37.764;2022-12-07T06:48:13;17.47;118.99
75799;DHT22;65035;44.726;37.764;2022-12-07T06:49:16;17.45;118.99
75799;DHT22;65035;44.726;37.764;2022-12-07T06:50:19;17.48;118.99
75799;DHT22;65035;44.726;37.764;2022-12-07T06:51:22;17.50;118.99
75799;DHT22;65035;44.726;37.764;2022-12-07T06:52:25;17.50;118.99
75799;DHT22;65035;44.726;37.764;2022-12-07T06:53:28;17.49;118.99
75799;DHT22;65035;44.726;37.764;2022-12-07T06:54:31;17.46;118.99
75799;DHT22;65035;44.726;37.764;2022-12-07T06:55:34;17.46;118.99
75799;DHT22;65035;44.726;37.764;2022-12-07T06:56:37;17.49;118.99
75799;DHT22;65035;44.726;37.764;2022-12-07T06:57:40;17.47;118.99
75799;DHT22;65035;44.726;37.764;2022-12-07T06:58:43;17.49;118.99
75799;DHT22;65035;44.726;37.764;2022-12-07T06:59:46;17.47;118.99
75799;DHT22;65035;44.726;37.764;2022-12-07T07:00:49;17.47;118.99
75799;DHT22;65035;44.726;37.764;2022-12-07T07:01:52;17.48;118.99
75799;DHT22;65035;44.726;37.764;2022-12-07T07:02:55;17.47;118.99
75799;DHT22;65035;44.726;37.764;2022-12-07T07:03:58;17.45;118.99
75799;DHT22;65035;44.726;37.764;2022-12-07T07:05:02;17.52;118.99
75799;DHT22;65035;44.726;37.764;2022-12-07T07:06:06;17.49;118.99
75799;DHT22;65035;44.726;37.764;2022-12-07T07:07:09;17.49;118.99
75799;DHT22;65035;44.726;37.764;2022-12-07T07:08:13;17.48;118.99
75799;DHT22;65035;44.726;37.764;2022-12-07T07:09:23;17.49;118.99
75799;DHT22;65035;44.726;37.764;2022-12-07T07:10:26;17.48;118.99
75799;DHT22;65035;44.726;37.764;2022-12-07T07:11:31;17.49;118.99
75799;DHT22;65035;44.726;37.764;2022-12-07T07:12:34;17.48;118.99
75799;DHT22;65035;44.726;37.764;2022-12-07T07:13:37;17.50;118.99
75799;DHT22;65035;44.726;37.764;2022-12-07T07:14:41;17.50;118.99
75799;DHT22;65035;44.726;37.764;2022-12-07T07:15:44;17.48;118.99